TNCMTLPC

Guest
Details From TNCM - St Maarten - Princess Juliana Intl
To TLPC - Castries/George F L Charles
Flight Number -
Tags decoded
Created
Modified
Stats Distance 286 nm / 530 km
Max Altitude 0 ft / 0 m
Waypoints 6
Social Downloads 2
Likes 0
Share VATSIM

Download

Looking for another format? Having issues loading an existing format? Contact us
Advertisement - Login to hide

Notes

Requested: TNCM ELOPO L451 ANU UA312 FOF TLPC Unmatched points: L451

Route

TNCM ELOPO ANU UA312 FOF TLPC

ID Type Via Altitude (ft/m) Position (lat/lon) Dist (leg/tot) Name
O TNCM APT - 0 / 0 18.04089 / -63.10897 - / 0 nm St Maarten - Princess Juliana Intl
ELOPO FIX - 0 / 0 17.65006 / -62.55439 39 / 39 nm
ANU NDB - 0 / 0 17.12588 / -61.80017 53 / 92 nm V C BIRD NDB
PPR DME UA312 (AWY-HI) 0 / 0 16.26519 / -61.54014 53 / 146 nm POINTE A PITRE VOR-DME
FOF NDB UA312 (AWY-HI) 0 / 0 14.58908 / -61.00131 105 / 252 nm MARTINIQUE NDB
O TLPC APT - 0 / 0 14.01970 / -60.99339 34 / 286 nm Castries/George F L Charles

Altitude Profile

Advertisement - Login to hide

Weather


0- 5 10 15 20 25 30 35+ Temperature / °C

Clouds and Precipitation
Forecast for 2018-12-11 12:00 UTC. Updated an hour ago

Ground ~20,000 ft ~40,000 ft Winds

TNCM

Details ICAO TNCM (SXM)
Name Princess Juliana Int'l
Region Caribbean Netherlands, Aruba, Curaçao, Sint Maarten
Timezone Unknown
Stats Elevation 12 ft / 4 m (AMSL)
Location 18.040900° -63.108900°
Runways 1
Magnetic Variation 14.352° W

METAR

TNCM 111000Z 09009KT 060V130 9999 FEW020 26/22 Q1019 A3009 NOSIG

Decode

TAF

TAF TAF TNCM 110536Z 1106/1206 10010KT P6SM VCSH FEW020 SCT045 FM111400 13010KT P6SM SCT022 FM112300 11008KT P6SM FEW022

Decode

Departure Runways

ID Width Length Bearing (true/mag) Surface Threshold Overrun Markings Lighting
10 148 ft / 45 m 7,553 ft / 2,302 m 81.44° / 95.79° ASPHALT 331 ft / 101 m 164 ft / 50 m PREC-APP EDGE THRESHOLD REIL-OMNI
28 148 ft / 45 m 7,553 ft / 2,302 m 261.45° / 275.80° ASPHALT 0 ft / 0 m 200 ft / 61 m APP EDGE THRESHOLD

TLPC

Details ICAO TLPC (SLU)
Name Castries/George F L Charles
Region Saint Lucia
Timezone America/St_Lucia (UTC-4.0)
Stats Elevation 22 ft / 7 m (AMSL)
Location 14.019700° -60.993400°
Runways 1
Magnetic Variation 15.105° W

METAR

TLPC 111000Z 11005KT 9999 FEW022 25/21 Q1018 NOSIG

Decode

TAF

Not found

Destination Runways

ID Width Length Bearing (true/mag) Surface Threshold Overrun Markings Lighting
09 148 ft / 45 m 5,731 ft / 1,747 m 75.34° / 90.44° ASPHALT 400 ft / 122 m 0 ft / 0 m APP EDGE THRESHOLD
27 148 ft / 45 m 5,731 ft / 1,747 m 255.34° / 270.45° ASPHALT 925 ft / 282 m 0 ft / 0 m APP EDGE THRESHOLD

Popular Alternatives